createdAt,value
2023-04-01T00:01:50.849Z,7.80
2023-04-01T00:04:18.423Z,7.80
2023-04-01T00:06:46.152Z,7.80
2023-04-01T00:09:13.480Z,7.70
2023-04-01T00:11:41.331Z,7.70
2023-04-01T00:14:08.796Z,7.70
2023-04-01T00:16:36.071Z,7.70
2023-04-01T00:19:04.426Z,7.70
2023-04-01T00:21:31.857Z,7.60
2023-04-01T00:24:00.107Z,7.60
2023-04-01T00:26:27.513Z,7.60
2023-04-01T00:28:54.713Z,7.60
2023-04-01T00:31:21.938Z,7.60
2023-04-01T00:33:49.259Z,7.60
2023-04-01T00:36:19.484Z,7.50
2023-04-01T00:38:47.671Z,7.50
2023-04-01T00:41:16.844Z,7.50
2023-04-01T00:43:46.932Z,7.60
2023-04-01T00:46:14.316Z,7.50
2023-04-01T00:48:53.947Z,7.50
2023-04-01T00:51:28.640Z,7.50
2023-04-01T00:53:59.061Z,7.40
2023-04-01T00:56:31.426Z,7.50
2023-04-01T00:59:03.620Z,7.50
2023-04-01T01:01:32.124Z,7.50
2023-04-01T01:04:00.588Z,7.50
2023-04-01T01:06:54.952Z,7.50
2023-04-01T01:09:48.850Z,7.60
2023-04-01T01:12:56.748Z,7.60
2023-04-01T01:15:51.481Z,7.60
2023-04-01T01:18:27.542Z,7.60
2023-04-01T01:21:21.865Z,7.70
2023-04-01T01:24:17.001Z,7.60
2023-04-01T01:26:56.264Z,7.60
2023-04-01T01:29:29.602Z,7.70
2023-04-01T01:32:16.046Z,7.70
2023-04-01T01:35:11.094Z,7.70
2023-04-01T01:37:41.921Z,7.80
2023-04-01T01:40:12.526Z,7.80
2023-04-01T01:42:49.193Z,7.80
2023-04-01T01:45:20.710Z,7.80
2023-04-01T01:47:50.812Z,7.80
2023-04-01T01:50:19.796Z,7.80
2023-04-01T01:52:46.974Z,7.70
2023-04-01T01:55:31.001Z,7.70
2023-04-01T01:58:03.566Z,7.70
2023-04-01T02:00:31.216Z,7.70
2023-04-01T02:03:00.956Z,7.70
2023-04-01T02:05:31.599Z,7.70
2023-04-01T02:08:15.085Z,7.70
2023-04-01T02:10:47.153Z,7.70
2023-04-01T02:13:26.979Z,7.70
2023-04-01T02:15:58.598Z,7.70
2023-04-01T02:18:26.467Z,7.70
2023-04-01T02:20:54.237Z,7.70
2023-04-01T02:23:21.806Z,7.70
2023-04-01T02:25:49.141Z,7.70
2023-04-01T02:28:21.368Z,7.60
2023-04-01T02:30:50.660Z,7.70
2023-04-01T02:33:19.785Z,7.70
2023-04-01T02:35:47.241Z,7.70
2023-04-01T02:38:16.630Z,7.60
2023-04-01T02:40:50.895Z,7.60
2023-04-01T02:43:19.817Z,7.70
2023-04-01T02:45:47.013Z,7.70
2023-04-01T02:48:14.984Z,7.70
2023-04-01T02:50:42.286Z,7.60
2023-04-01T02:53:09.704Z,7.60
2023-04-01T02:55:36.966Z,7.60
2023-04-01T02:58:04.432Z,7.60
2023-04-01T03:00:31.973Z,7.60
2023-04-01T03:02:59.460Z,7.60
2023-04-01T03:05:26.866Z,7.60
2023-04-01T03:07:54.092Z,7.60
2023-04-01T03:10:21.392Z,7.60
2023-04-01T03:12:48.608Z,7.60
2023-04-01T03:15:16.096Z,7.60
2023-04-01T03:17:44.144Z,7.60
2023-04-01T03:20:12.576Z,7.60
2023-04-01T03:22:42.831Z,7.60
2023-04-01T03:25:11.654Z,7.60
2023-04-01T03:27:39.549Z,7.60
2023-04-01T03:30:08.828Z,7.60
2023-04-01T03:32:42.683Z,7.50
2023-04-01T03:35:11.185Z,7.50
2023-04-01T03:37:38.852Z,7.50
2023-04-01T03:40:06.850Z,7.50
2023-04-01T03:42:34.369Z,7.40
2023-04-01T03:45:01.716Z,7.30
2023-04-01T03:47:29.797Z,7.30
2023-04-01T03:49:57.384Z,7.30
2023-04-01T03:52:24.723Z,7.20
2023-04-01T03:54:52.044Z,7.20
2023-04-01T03:57:19.619Z,7.20
2023-04-01T03:59:47.112Z,7.30
2023-04-01T04:02:14.345Z,7.30
2023-04-01T04:04:42.347Z,7.30
2023-04-01T04:07:09.987Z,7.20
2023-04-01T04:10:01.253Z,7.20
2023-04-01T04:12:28.639Z,7.20
2023-04-01T04:14:56.003Z,7.20
2023-04-01T04:17:24.161Z,7.20
2023-04-01T04:19:51.452Z,7.10
2023-04-01T04:22:18.645Z,7.10
2023-04-01T04:24:45.834Z,7.10
2023-04-01T04:27:14.216Z,7.10
2023-04-01T04:30:08.826Z,7.00
2023-04-01T04:32:37.083Z,7.20
2023-04-01T04:35:07.336Z,7.20
2023-04-01T04:37:35.311Z,7.30
2023-04-01T04:40:02.731Z,7.30
2023-04-01T04:42:30.905Z,7.30
2023-04-01T04:45:04.185Z,7.30
2023-04-01T04:47:32.361Z,7.30
2023-04-01T04:49:59.608Z,7.30
2023-04-01T04:52:26.800Z,7.30
2023-04-01T04:54:53.985Z,7.40
2023-04-01T04:57:21.367Z,7.40
2023-04-01T04:59:54.883Z,7.40
2023-04-01T05:02:42.313Z,7.50
2023-04-01T05:05:09.791Z,7.50
2023-04-01T05:07:37.364Z,7.50
2023-04-01T05:10:05.335Z,7.50
2023-04-01T05:12:36.813Z,7.50
2023-04-01T05:15:06.273Z,7.50
2023-04-01T05:17:33.668Z,7.50
2023-04-01T05:20:01.678Z,7.60
2023-04-01T05:22:30.511Z,7.60
2023-04-01T05:24:57.782Z,7.70
2023-04-01T05:27:25.075Z,7.70
2023-04-01T05:29:52.341Z,7.70
2023-04-01T05:32:46.356Z,7.70
2023-04-01T05:35:13.632Z,7.80
2023-04-01T05:37:40.925Z,7.80
2023-04-01T05:40:08.967Z,7.90
2023-04-01T05:42:38.098Z,7.90
2023-04-01T05:45:06.363Z,7.90
2023-04-01T05:48:02.870Z,8.00
2023-04-01T05:50:34.485Z,8.00
2023-04-01T05:53:02.314Z,8.00
2023-04-01T05:55:29.689Z,8.00
2023-04-01T05:57:57.059Z,8.00
2023-04-01T06:00:24.402Z,8.10
2023-04-01T06:02:53.189Z,8.10
2023-04-01T06:05:23.910Z,8.10
2023-04-01T06:07:58.911Z,8.30
2023-04-01T06:10:45.540Z,8.30
2023-04-01T06:13:35.468Z,8.30
2023-04-01T06:16:05.468Z,8.30
2023-04-01T06:18:39.351Z,8.30
2023-04-01T06:21:13.693Z,8.40
2023-04-01T06:24:01.243Z,8.30
2023-04-01T06:26:52.217Z,8.30
2023-04-01T06:29:51.950Z,8.40
2023-04-01T06:32:19.266Z,8.50
2023-04-01T06:35:01.433Z,8.50
2023-04-01T06:38:07.034Z,8.50
2023-04-01T06:40:40.382Z,8.50
2023-04-01T06:43:45.666Z,8.50
2023-04-01T06:46:48.697Z,8.50
2023-04-01T06:49:52.797Z,8.60
2023-04-01T06:52:56.395Z,8.60
2023-04-01T06:55:54.462Z,8.60
2023-04-01T06:58:49.050Z,8.60
2023-04-01T07:01:27.270Z,8.60
2023-04-01T07:04:06.953Z,8.60
2023-04-01T07:07:11.370Z,8.70
2023-04-01T07:09:53.731Z,8.90
2023-04-01T07:12:32.894Z,9.10
2023-04-01T07:15:29.450Z,9.10
2023-04-01T07:18:03.229Z,9.30
2023-04-01T07:20:36.111Z,9.40
2023-04-01T07:23:08.054Z,9.40
2023-04-01T07:26:24.933Z,9.30
2023-04-01T07:29:21.196Z,9.30
2023-04-01T07:32:13.435Z,9.30
2023-04-01T07:35:08.791Z,9.40
2023-04-01T07:37:44.081Z,9.60
2023-04-01T07:40:53.506Z,9.70
2023-04-01T07:43:48.968Z,9.80
2023-04-01T07:46:42.980Z,9.90
2023-04-01T07:49:16.448Z,9.90
2023-04-01T07:52:04.861Z,9.90
2023-04-01T07:54:56.087Z,10.00
2023-04-01T07:57:35.510Z,10.00
2023-04-01T08:00:16.678Z,10.10
2023-04-01T08:03:26.391Z,10.20
2023-04-01T08:06:04.344Z,10.10
2023-04-01T08:09:05.126Z,10.20
2023-04-01T08:11:44.970Z,10.20
2023-04-01T08:14:49.110Z,10.30
2023-04-01T08:17:49.522Z,10.30
2023-04-01T08:20:38.421Z,10.60
2023-04-01T08:23:11.795Z,10.70
2023-04-01T08:25:57.396Z,10.70
2023-04-01T08:28:47.608Z,10.70
2023-04-01T08:31:27.205Z,10.90
2023-04-01T08:33:56.185Z,10.90
2023-04-01T08:36:34.051Z,11.00
2023-04-01T08:39:19.152Z,11.10
2023-04-01T08:42:19.633Z,11.30
2023-04-01T08:45:30.119Z,11.30
2023-04-01T08:48:24.809Z,11.30
2023-04-01T08:51:38.396Z,11.40
2023-04-01T08:54:22.277Z,11.50
2023-04-01T08:57:13.324Z,11.30
2023-04-01T09:00:26.603Z,11.30
2023-04-01T09:03:24.784Z,11.40
2023-04-01T09:06:16.174Z,11.70
2023-04-01T09:09:20.347Z,11.90
2023-04-01T09:12:08.242Z,12.10
2023-04-01T09:14:55.783Z,12.00
2023-04-01T09:18:00.286Z,12.00
2023-04-01T09:20:53.641Z,11.80
2023-04-01T09:23:59.789Z,11.80
2023-04-01T09:26:53.247Z,11.80
2023-04-01T09:29:46.012Z,12.10
2023-04-01T09:32:16.169Z,12.20
2023-04-01T09:35:22.848Z,12.20
2023-04-01T09:38:15.348Z,12.20
2023-04-01T09:40:58.763Z,12.10
2023-04-01T09:44:23.643Z,12.20
2023-04-01T09:47:27.899Z,12.10
2023-04-01T09:50:15.416Z,12.20
2023-04-01T09:53:00.326Z,12.30
2023-04-01T09:55:52.032Z,12.40
2023-04-01T09:58:47.017Z,12.50
2023-04-01T10:01:53.936Z,12.70
2023-04-01T10:04:46.149Z,13.00
2023-04-01T10:07:57.923Z,13.10
2023-04-01T10:10:40.540Z,13.30
2023-04-01T10:13:18.262Z,13.20
2023-04-01T10:16:17.023Z,13.10
2023-04-01T10:18:57.957Z,13.00
2023-04-01T10:21:50.969Z,12.90
2023-04-01T10:24:37.525Z,12.80
2023-04-01T10:27:33.111Z,12.70
2023-04-01T10:30:26.823Z,12.80
2023-04-01T10:33:03.475Z,13.00
2023-04-01T10:36:08.779Z,13.20
2023-04-01T10:39:08.199Z,13.10
2023-04-01T10:41:51.261Z,13.30
2023-04-01T10:45:32.130Z,13.10
2023-04-01T10:48:32.805Z,13.00
2023-04-01T10:51:02.805Z,12.90
2023-04-01T10:53:44.087Z,12.90
2023-04-01T10:56:29.369Z,12.90
2023-04-01T10:59:33.561Z,12.50
2023-04-01T11:02:58.266Z,12.40
2023-04-01T11:06:22.984Z,12.40
2023-04-01T11:08:59.424Z,12.40
2023-04-01T11:11:56.828Z,12.40
2023-04-01T11:14:54.927Z,12.20
2023-04-01T11:17:54.844Z,12.20
2023-04-01T11:20:50.990Z,12.20
2023-04-01T11:23:18.895Z,11.90
2023-04-01T11:26:05.578Z,11.60
2023-04-01T11:29:27.269Z,11.50
2023-04-01T11:32:12.365Z,11.40
2023-04-01T11:35:17.260Z,11.40
2023-04-01T11:37:56.810Z,11.60
2023-04-01T11:41:14.040Z,11.60
2023-04-01T11:44:25.293Z,11.70
2023-04-01T11:47:25.575Z,11.70
2023-04-01T11:50:17.089Z,11.60
2023-04-01T11:53:07.985Z,11.50
2023-04-01T11:55:41.822Z,11.40
2023-04-01T11:58:34.153Z,11.30
2023-04-01T12:01:20.825Z,11.00
2023-04-01T12:04:17.010Z,10.70
2023-04-01T12:06:53.776Z,10.60
2023-04-01T12:09:51.320Z,10.50
2023-04-01T12:12:33.641Z,10.30
2023-04-01T12:15:14.558Z,10.30
2023-04-01T12:17:45.475Z,10.10
2023-04-01T12:20:55.572Z,10.00
2023-04-01T12:23:31.707Z,10.00
2023-04-01T12:26:47.108Z,10.00
2023-04-01T12:29:32.801Z,10.10
2023-04-01T12:32:23.715Z,10.00
2023-04-01T12:34:59.257Z,10.00
2023-04-01T12:37:41.692Z,9.90
2023-04-01T12:40:41.282Z,9.80
2023-04-01T12:43:27.023Z,9.70
2023-04-01T12:46:15.322Z,9.80
2023-04-01T12:49:09.298Z,9.80
2023-04-01T12:52:09.153Z,9.70
2023-04-01T12:55:04.935Z,9.70
2023-04-01T12:57:50.187Z,9.60
2023-04-01T13:00:39.691Z,9.60
2023-04-01T13:03:28.760Z,9.60
2023-04-01T13:06:21.621Z,9.40
2023-04-01T13:08:53.048Z,9.40
2023-04-01T13:11:47.525Z,9.30
2023-04-01T13:14:29.143Z,9.40
2023-04-01T13:17:16.526Z,9.40
2023-04-01T13:20:01.747Z,9.40
2023-04-01T13:22:53.010Z,9.30
2023-04-01T13:25:36.326Z,9.30
2023-04-01T13:28:27.311Z,9.20
2023-04-01T13:31:07.505Z,9.20
2023-04-01T13:33:54.707Z,9.20
2023-04-01T13:36:36.187Z,9.20
2023-04-01T13:39:08.886Z,9.20
2023-04-01T13:41:54.659Z,9.20
2023-04-01T13:44:45.872Z,9.20
2023-04-01T13:47:25.447Z,9.10
2023-04-01T13:50:13.822Z,9.20
2023-04-01T13:52:49.828Z,9.10
2023-04-01T13:55:45.875Z,9.00
2023-04-01T13:58:19.115Z,9.10
2023-04-01T14:01:07.627Z,9.20
2023-04-01T14:03:43.572Z,9.40
2023-04-01T14:06:23.900Z,9.40
2023-04-01T14:09:15.906Z,9.40
2023-04-01T14:12:04.717Z,9.60
2023-04-01T14:14:51.940Z,9.60
2023-04-01T14:17:37.314Z,9.70
2023-04-01T14:20:26.127Z,9.70
2023-04-01T14:23:17.782Z,9.70
2023-04-01T14:26:14.163Z,9.60
2023-04-01T14:28:56.175Z,9.60
2023-04-01T14:31:31.767Z,9.60
2023-04-01T14:34:23.728Z,9.60
2023-04-01T14:36:53.857Z,9.60
2023-04-01T14:39:41.242Z,9.60
2023-04-01T14:42:30.460Z,9.60
2023-04-01T14:45:28.732Z,9.70
2023-04-01T14:47:59.814Z,9.80
2023-04-01T14:50:41.856Z,9.80
2023-04-01T14:53:27.265Z,9.90
2023-04-01T14:55:57.436Z,9.80
2023-04-01T14:58:42.769Z,9.70
2023-04-01T15:01:18.819Z,9.60
2023-04-01T15:04:05.199Z,9.60
2023-04-01T15:06:35.387Z,9.60
2023-04-01T15:09:22.666Z,9.70
2023-04-01T15:12:19.190Z,9.80
2023-04-01T15:15:07.882Z,9.80
2023-04-01T15:17:41.640Z,9.90
2023-04-01T15:20:50.632Z,9.80
2023-04-01T15:23:23.779Z,9.80
2023-04-01T15:26:06.625Z,9.80
2023-04-01T15:28:37.256Z,9.70
2023-04-01T15:31:27.767Z,9.80
2023-04-01T15:34:18.695Z,9.70
2023-04-01T15:37:02.052Z,9.80
2023-04-01T15:39:40.710Z,9.80
2023-04-01T15:42:13.619Z,9.90
2023-04-01T15:45:14.136Z,10.00
2023-04-01T15:47:46.713Z,10.00
2023-04-01T15:50:28.917Z,9.90
2023-04-01T15:53:18.442Z,10.00
2023-04-01T15:56:10.687Z,10.00
2023-04-01T15:58:59.193Z,9.90
2023-04-01T16:02:16.752Z,10.00
2023-04-01T16:05:02.041Z,9.90
2023-04-01T16:07:44.620Z,9.90
2023-04-01T16:10:22.680Z,9.90
2023-04-01T16:13:47.344Z,10.00
2023-04-01T16:16:29.482Z,10.00
2023-04-01T16:19:17.633Z,10.10
2023-04-01T16:21:55.920Z,10.10
2023-04-01T16:24:32.815Z,10.10
2023-04-01T16:27:15.608Z,10.10
2023-04-01T16:30:17.349Z,10.10
2023-04-01T16:33:00.684Z,10.10
2023-04-01T16:35:43.036Z,10.10
2023-04-01T16:38:21.073Z,10.00
2023-04-01T16:40:51.707Z,10.00
2023-04-01T16:43:39.792Z,9.90
2023-04-01T16:46:27.413Z,9.90
2023-04-01T16:49:12.836Z,9.90
2023-04-01T16:51:52.207Z,9.80
2023-04-01T16:54:22.355Z,9.70
2023-04-01T16:57:02.794Z,9.70
2023-04-01T16:59:36.858Z,9.70
2023-04-01T17:02:13.325Z,9.60
2023-04-01T17:04:49.299Z,9.60
2023-04-01T17:07:37.645Z,9.50
2023-04-01T17:10:19.661Z,9.40
2023-04-01T17:13:09.357Z,9.40
2023-04-01T17:15:47.596Z,9.40
2023-04-01T17:18:23.824Z,9.20
2023-04-01T17:21:06.384Z,9.40
2023-04-01T17:23:59.956Z,9.40
2023-04-01T17:26:38.354Z,9.30
2023-04-01T17:29:38.208Z,9.30
2023-04-01T17:32:42.617Z,9.30
2023-04-01T17:35:22.325Z,9.30
2023-04-01T17:38:20.583Z,9.40
2023-04-01T17:41:11.678Z,9.30
2023-04-01T17:43:53.317Z,9.30
2023-04-01T17:46:32.784Z,9.30
2023-04-01T17:49:29.456Z,9.30
2023-04-01T17:52:18.169Z,9.30
2023-04-01T17:55:04.126Z,9.30
2023-04-01T17:57:37.391Z,9.30
2023-04-01T18:00:21.733Z,9.20
2023-04-01T18:03:18.128Z,9.30
2023-04-01T18:06:17.582Z,9.20
2023-04-01T18:08:59.827Z,9.20
2023-04-01T18:11:40.270Z,9.20
2023-04-01T18:14:35.828Z,9.20
2023-04-01T18:17:35.081Z,9.20
2023-04-01T18:20:29.864Z,9.30
2023-04-01T18:23:15.660Z,9.20
2023-04-01T18:25:49.018Z,9.20
2023-04-01T18:28:23.062Z,9.20
2023-04-01T18:30:58.612Z,9.20
2023-04-01T18:33:35.518Z,9.20
2023-04-01T18:36:24.829Z,9.10
2023-04-01T18:38:55.327Z,9.00
2023-04-01T18:41:25.241Z,8.90
2023-04-01T18:44:09.133Z,8.80
2023-04-01T18:47:12.697Z,8.80
2023-04-01T18:49:46.597Z,8.70
2023-04-01T18:52:36.888Z,8.80
2023-04-01T18:55:04.046Z,8.70
2023-04-01T18:57:54.447Z,8.70
2023-04-01T19:00:26.857Z,8.70
2023-04-01T19:03:07.249Z,8.70
2023-04-01T19:05:39.189Z,8.70
2023-04-01T19:08:21.357Z,8.70
2023-04-01T19:11:33.168Z,8.60
2023-04-01T19:14:07.282Z,8.60
2023-04-01T19:17:10.196Z,8.60
2023-04-01T19:19:40.364Z,8.60
2023-04-01T19:22:21.974Z,8.60
2023-04-01T19:25:20.602Z,8.60
2023-04-01T19:28:27.056Z,8.60
2023-04-01T19:31:03.477Z,8.50
2023-04-01T19:33:41.877Z,8.50
2023-04-01T19:36:33.682Z,8.40
2023-04-01T19:39:35.603Z,8.50
2023-04-01T19:42:14.916Z,8.50
2023-04-01T19:44:42.071Z,8.50
2023-04-01T19:47:25.355Z,8.50
2023-04-01T19:50:11.511Z,8.50
2023-04-01T19:52:44.234Z,8.50
2023-04-01T19:55:30.264Z,8.40
2023-04-01T19:58:10.294Z,8.40
2023-04-01T20:00:52.692Z,8.40
2023-04-01T20:03:48.540Z,8.40
2023-04-01T20:06:36.414Z,8.40
2023-04-01T20:09:33.708Z,8.30
2023-04-01T20:12:19.030Z,8.30
2023-04-01T20:14:55.701Z,8.20
2023-04-01T20:17:24.106Z,8.20
2023-04-01T20:20:09.785Z,8.10
2023-04-01T20:22:46.009Z,8.10
2023-04-01T20:25:22.770Z,8.10
2023-04-01T20:27:55.816Z,8.10
2023-04-01T20:30:34.941Z,8.10
2023-04-01T20:33:20.216Z,8.00
2023-04-01T20:36:22.609Z,8.00
2023-04-01T20:38:58.872Z,8.10
2023-04-01T20:41:34.867Z,8.10
2023-04-01T20:44:20.966Z,8.10
2023-04-01T20:47:19.455Z,8.10
2023-04-01T20:50:01.452Z,8.10
2023-04-01T20:52:43.556Z,8.10
2023-04-01T20:55:22.478Z,8.10
2023-04-01T20:58:11.662Z,8.10
2023-04-01T21:00:44.266Z,8.10
2023-04-01T21:03:27.035Z,8.10
2023-04-01T21:06:04.451Z,8.10
2023-04-01T21:08:37.860Z,8.10
2023-04-01T21:11:26.511Z,8.10
2023-04-01T21:14:22.968Z,8.10
2023-04-01T21:16:59.359Z,8.10
2023-04-01T21:19:41.889Z,8.10
2023-04-01T21:22:16.637Z,8.20
2023-04-01T21:24:52.612Z,8.10
2023-04-01T21:27:44.005Z,8.10
2023-04-01T21:30:31.316Z,8.10
2023-04-01T21:33:53.828Z,8.00
2023-04-01T21:36:26.942Z,8.10
2023-04-01T21:39:22.300Z,8.10
2023-04-01T21:42:28.556Z,8.00
2023-04-01T21:45:31.327Z,8.00
2023-04-01T21:47:58.593Z,8.10
2023-04-01T21:50:48.260Z,8.10
2023-04-01T21:53:45.867Z,8.10
2023-04-01T21:56:38.058Z,8.10
2023-04-01T21:59:23.732Z,8.10
2023-04-01T22:01:53.725Z,8.10
2023-04-01T22:04:36.092Z,8.20
2023-04-01T22:07:18.900Z,8.10
2023-04-01T22:10:21.399Z,8.20
2023-04-01T22:13:18.327Z,8.20
2023-04-01T22:15:56.696Z,8.30
2023-04-01T22:18:35.534Z,8.20
2023-04-01T22:21:24.092Z,8.20
2023-04-01T22:24:03.080Z,8.20
2023-04-01T22:26:50.638Z,8.20
2023-04-01T22:29:36.082Z,8.20
2023-04-01T22:32:25.692Z,8.20
2023-04-01T22:35:13.711Z,8.20
2023-04-01T22:38:05.750Z,8.20
2023-04-01T22:40:53.314Z,8.20
2023-04-01T22:43:40.571Z,8.30
2023-04-01T22:46:20.136Z,8.30
2023-04-01T22:48:54.931Z,8.30
2023-04-01T22:51:45.691Z,8.20
2023-04-01T22:54:23.583Z,8.10
2023-04-01T22:57:01.802Z,8.20
2023-04-01T22:59:53.980Z,8.20
2023-04-01T23:02:34.572Z,8.20
2023-04-01T23:05:06.206Z,8.20
2023-04-01T23:08:15.297Z,8.30
2023-04-01T23:10:53.663Z,8.30
2023-04-01T23:13:28.166Z,8.20
2023-04-01T23:15:56.667Z,8.20
2023-04-01T23:18:52.758Z,8.20
2023-04-01T23:21:27.401Z,8.20
2023-04-01T23:24:21.381Z,8.20
2023-04-01T23:27:06.505Z,8.20
2023-04-01T23:29:37.581Z,8.20
2023-04-01T23:32:05.525Z,8.10
2023-04-01T23:34:35.798Z,8.20
2023-04-01T23:37:06.302Z,8.20
2023-04-01T23:39:40.574Z,8.20
2023-04-01T23:42:21.905Z,8.10
2023-04-01T23:44:58.505Z,8.00
2023-04-01T23:47:31.525Z,8.10
2023-04-01T23:50:04.635Z,8.10
2023-04-01T23:52:37.337Z,8.10
2023-04-01T23:55:15.023Z,8.00
2023-04-01T23:57:42.266Z,8.00
